createdAt,value
2022-11-27T00:01:32.845Z,1021.06
2022-11-27T00:04:40.121Z,1020.93
2022-11-27T00:07:47.017Z,1020.94
2022-11-27T00:10:53.874Z,1020.89
2022-11-27T00:14:00.686Z,1020.90
2022-11-27T00:17:07.155Z,1020.92
2022-11-27T00:20:14.398Z,1020.87
2022-11-27T00:23:21.615Z,1020.88
2022-11-27T00:26:30.022Z,1020.90
2022-11-27T00:29:29.850Z,1020.81
2022-11-27T00:32:37.016Z,1020.73
2022-11-27T00:35:43.538Z,1020.82
2022-11-27T00:38:50.790Z,1020.70
2022-11-27T00:41:57.618Z,1020.79
2022-11-27T00:45:04.455Z,1020.76
2022-11-27T00:48:11.137Z,1020.76
2022-11-27T00:51:17.609Z,1020.75
2022-11-27T00:54:24.460Z,1020.64
2022-11-27T00:57:31.394Z,1020.62
2022-11-27T01:00:38.289Z,1020.60
2022-11-27T01:03:45.117Z,1020.67
2022-11-27T01:06:51.609Z,1020.68
2022-11-27T01:09:58.890Z,1020.69
2022-11-27T01:13:06.241Z,1020.66
2022-11-27T01:16:12.808Z,1020.64
2022-11-27T01:19:20.128Z,1020.66
2022-11-27T01:22:27.471Z,1020.62
2022-11-27T01:25:33.924Z,1020.65
2022-11-27T01:28:41.011Z,1020.54
2022-11-27T01:31:47.953Z,1020.52
2022-11-27T01:34:54.832Z,1020.46
2022-11-27T01:38:02.154Z,1020.55
2022-11-27T01:41:08.890Z,1020.48
2022-11-27T01:44:15.674Z,1020.52
2022-11-27T01:47:22.704Z,1020.40
2022-11-27T01:50:26.619Z,1020.40
2022-11-27T01:53:33.605Z,1020.43
2022-11-27T01:56:40.357Z,1020.37
2022-11-27T01:59:47.526Z,1020.29
2022-11-27T02:02:54.449Z,1020.28
2022-11-27T02:06:01.276Z,1020.33
2022-11-27T02:09:07.975Z,1020.32
2022-11-27T02:12:14.434Z,1020.27
2022-11-27T02:15:21.626Z,1020.23
2022-11-27T02:18:28.507Z,1020.16
2022-11-27T02:21:35.247Z,1020.12
2022-11-27T02:24:42.763Z,1020.12
2022-11-27T02:27:49.299Z,1020.16
2022-11-27T02:30:56.438Z,1020.13
2022-11-27T02:34:03.741Z,1020.09
2022-11-27T02:37:10.233Z,1020.02
2022-11-27T02:40:17.332Z,1020.07
2022-11-27T02:43:24.480Z,1020.06
2022-11-27T02:46:31.122Z,1020.03
2022-11-27T02:49:38.041Z,1020.00
2022-11-27T02:52:45.171Z,1020.06
2022-11-27T02:55:51.750Z,1019.90
2022-11-27T02:58:58.490Z,1019.92
2022-11-27T03:02:04.973Z,1019.80
2022-11-27T03:05:11.749Z,1019.80
2022-11-27T03:08:18.961Z,1019.83
2022-11-27T03:11:25.344Z,1019.79
2022-11-27T03:14:32.482Z,1019.71
2022-11-27T03:17:39.573Z,1019.73
2022-11-27T03:20:46.033Z,1019.63
2022-11-27T03:23:53.271Z,1019.61
2022-11-27T03:27:00.124Z,1019.59
2022-11-27T03:30:06.968Z,1019.52
2022-11-27T03:33:14.353Z,1019.56
2022-11-27T03:36:21.213Z,1019.58
2022-11-27T03:39:28.115Z,1019.60
2022-11-27T03:42:34.645Z,1019.66
2022-11-27T03:45:42.045Z,1019.63
2022-11-27T03:48:48.925Z,1019.62
2022-11-27T03:51:55.477Z,1019.55
2022-11-27T03:55:02.766Z,1019.51
2022-11-27T03:58:09.687Z,1019.48
2022-11-27T04:01:16.498Z,1019.45
2022-11-27T04:04:23.717Z,1019.58
2022-11-27T04:07:31.041Z,1019.56
2022-11-27T04:10:37.577Z,1019.57
2022-11-27T04:13:44.887Z,1019.52
2022-11-27T04:16:51.812Z,1019.48
2022-11-27T04:19:58.748Z,1019.38
2022-11-27T04:23:06.199Z,1019.34
2022-11-27T04:26:12.900Z,1019.36
2022-11-27T04:29:19.719Z,1019.41
2022-11-27T04:32:26.540Z,1019.40
2022-11-27T04:35:33.811Z,1019.49
2022-11-27T04:38:40.696Z,1019.57
2022-11-27T04:41:47.420Z,1019.53
2022-11-27T04:44:54.601Z,1019.46
2022-11-27T04:48:01.472Z,1019.40
2022-11-27T04:51:08.410Z,1019.35
2022-11-27T04:54:15.602Z,1019.41
2022-11-27T04:57:22.462Z,1019.42
2022-11-27T05:00:29.228Z,1019.34
2022-11-27T05:03:35.994Z,1019.33
2022-11-27T05:06:42.473Z,1019.34
2022-11-27T05:09:49.823Z,1019.30
2022-11-27T05:12:56.753Z,1019.29
2022-11-27T05:16:03.677Z,1019.36
2022-11-27T05:19:10.318Z,1019.24
2022-11-27T05:22:17.044Z,1019.24
2022-11-27T05:25:23.965Z,1019.25
2022-11-27T05:28:31.325Z,1019.17
2022-11-27T05:31:37.897Z,1019.14
2022-11-27T05:34:44.935Z,1019.09
2022-11-27T05:37:52.154Z,1019.04
2022-11-27T05:40:58.705Z,1019.07
2022-11-27T05:44:05.992Z,1019.05
2022-11-27T05:47:13.076Z,1018.97
2022-11-27T05:50:19.536Z,1018.96
2022-11-27T05:53:26.717Z,1018.88
2022-11-27T05:56:33.688Z,1018.78
2022-11-27T05:59:40.196Z,1018.75
2022-11-27T06:02:47.711Z,1018.70
2022-11-27T06:05:54.563Z,1018.67
2022-11-27T06:09:01.458Z,1018.58
2022-11-27T06:12:08.589Z,1018.67
2022-11-27T06:15:15.348Z,1018.62
2022-11-27T06:18:22.199Z,1018.54
2022-11-27T06:21:28.669Z,1018.58
2022-11-27T06:24:35.671Z,1018.58
2022-11-27T06:27:42.529Z,1018.56
2022-11-27T06:30:49.039Z,1018.50
2022-11-27T06:33:56.029Z,1018.48
2022-11-27T06:37:02.852Z,1018.42
2022-11-27T06:40:09.589Z,1018.37
2022-11-27T06:43:16.810Z,1018.32
2022-11-27T06:46:23.270Z,1018.33
2022-11-27T06:49:30.145Z,1018.28
2022-11-27T06:52:40.338Z,1018.26
2022-11-27T06:55:36.801Z,1018.23
2022-11-27T06:58:43.901Z,1018.32
2022-11-27T07:01:50.850Z,1018.27
2022-11-27T07:04:57.592Z,1018.30
2022-11-27T07:08:04.971Z,1018.26
2022-11-27T07:11:11.414Z,1018.32
2022-11-27T07:14:18.642Z,1018.28
2022-11-27T07:17:25.790Z,1018.18
2022-11-27T07:20:32.574Z,1018.15
2022-11-27T07:23:41.561Z,1018.06
2022-11-27T07:26:48.955Z,1018.14
2022-11-27T07:29:59.477Z,1018.05
2022-11-27T07:33:06.931Z,1018.05
2022-11-27T07:36:13.894Z,1018.06
2022-11-27T07:39:39.342Z,1018.04
2022-11-27T07:42:40.638Z,1017.99
2022-11-27T07:45:29.104Z,1017.95
2022-11-27T07:48:35.926Z,1017.93
2022-11-27T07:51:42.816Z,1017.95
2022-11-27T07:54:49.333Z,1017.93
2022-11-27T07:57:56.618Z,1017.85
2022-11-27T08:01:03.627Z,1017.84
2022-11-27T08:04:10.700Z,1017.83
2022-11-27T08:07:17.821Z,1017.78
2022-11-27T08:10:24.648Z,1017.70
2022-11-27T08:13:31.540Z,1017.73
2022-11-27T08:16:38.577Z,1017.69
2022-11-27T08:19:46.998Z,1017.69
2022-11-27T08:22:58.120Z,1017.75
2022-11-27T08:25:56.890Z,1017.76
2022-11-27T08:29:03.750Z,1017.81
2022-11-27T08:32:10.514Z,1017.84
2022-11-27T08:35:17.444Z,1017.91
2022-11-27T08:38:24.730Z,1017.96
2022-11-27T08:41:31.593Z,1017.98
2022-11-27T08:44:38.207Z,1017.96
2022-11-27T08:47:45.373Z,1017.90
2022-11-27T08:50:51.884Z,1017.93
2022-11-27T08:53:58.985Z,1017.84
2022-11-27T08:57:05.852Z,1017.87
2022-11-27T09:00:12.314Z,1017.82
2022-11-27T09:03:19.495Z,1017.84
2022-11-27T09:06:26.671Z,1017.74
2022-11-27T09:09:33.242Z,1017.70
2022-11-27T09:12:43.403Z,1017.70
2022-11-27T09:15:50.494Z,1017.78
2022-11-27T09:18:57.296Z,1017.72
2022-11-27T09:22:04.496Z,1017.74
2022-11-27T09:25:11.445Z,1017.66
2022-11-27T09:28:18.218Z,1017.74
2022-11-27T09:31:25.494Z,1017.73
2022-11-27T09:34:37.160Z,1017.64
2022-11-27T09:37:33.739Z,1017.60
2022-11-27T09:40:40.549Z,1017.54
2022-11-27T09:43:47.468Z,1017.51
2022-11-27T09:46:54.707Z,1017.38
2022-11-27T09:50:01.511Z,1017.31
2022-11-27T09:53:08.540Z,1017.20
2022-11-27T09:56:15.569Z,1017.15
2022-11-27T09:59:22.384Z,1017.08
2022-11-27T10:02:29.408Z,1017.01
2022-11-27T10:05:35.992Z,1017.01
2022-11-27T10:08:43.321Z,1016.95
2022-11-27T10:11:50.242Z,1016.99
2022-11-27T10:14:57.034Z,1016.97
2022-11-27T10:18:04.163Z,1016.85
2022-11-27T10:21:10.725Z,1016.73
2022-11-27T10:24:18.008Z,1016.66
2022-11-27T10:27:24.712Z,1016.63
2022-11-27T10:30:31.167Z,1016.54
2022-11-27T10:33:38.007Z,1016.50
2022-11-27T10:36:44.645Z,1016.47
2022-11-27T10:39:51.246Z,1016.46
2022-11-27T10:42:58.156Z,1016.51
2022-11-27T10:46:05.034Z,1016.46
2022-11-27T10:49:11.876Z,1016.52
2022-11-27T10:52:19.096Z,1016.46
2022-11-27T10:55:26.027Z,1016.45
2022-11-27T10:58:32.569Z,1016.51
2022-11-27T11:01:39.529Z,1016.53
2022-11-27T11:05:03.299Z,1016.48
2022-11-27T11:07:51.056Z,1016.42
2022-11-27T11:10:57.839Z,1016.33
2022-11-27T11:14:04.840Z,1016.17
2022-11-27T11:17:11.774Z,1016.14
2022-11-27T11:20:18.529Z,1016.15
2022-11-27T11:23:25.312Z,1016.08
2022-11-27T11:26:32.282Z,1016.04
2022-11-27T11:29:39.204Z,1016.00
2022-11-27T11:32:46.037Z,1016.01
2022-11-27T11:35:52.604Z,1015.98
2022-11-27T11:39:00.034Z,1016.06
2022-11-27T11:42:06.951Z,1016.05
2022-11-27T11:45:13.968Z,1016.01
2022-11-27T11:48:20.909Z,1016.00
2022-11-27T11:51:29.464Z,1015.98
2022-11-27T11:54:36.127Z,1015.85
2022-11-27T11:57:42.939Z,1015.79
2022-11-27T12:01:26.052Z,1015.78
2022-11-27T12:03:53.596Z,1015.69
2022-11-27T12:07:00.790Z,1015.71
2022-11-27T12:10:07.259Z,1015.58
2022-11-27T12:13:14.468Z,1015.58
2022-11-27T12:16:21.841Z,1015.55
2022-11-27T12:19:28.233Z,1015.59
2022-11-27T12:22:35.281Z,1015.42
2022-11-27T12:25:41.983Z,1015.40
2022-11-27T12:28:50.379Z,1015.42
2022-11-27T12:31:49.707Z,1015.33
2022-11-27T12:34:56.216Z,1015.26
2022-11-27T12:38:03.495Z,1015.24
2022-11-27T12:41:10.697Z,1015.16
2022-11-27T12:44:17.236Z,1015.11
2022-11-27T12:47:24.345Z,1015.02
2022-11-27T12:50:31.247Z,1014.99
2022-11-27T12:53:38.067Z,1014.95
2022-11-27T12:56:45.338Z,1014.90
2022-11-27T12:59:52.098Z,1014.91
2022-11-27T13:02:58.891Z,1014.85
2022-11-27T13:06:05.498Z,1014.83
2022-11-27T13:09:12.751Z,1014.75
2022-11-27T13:12:19.531Z,1014.76
2022-11-27T13:15:26.491Z,1014.72
2022-11-27T13:18:33.613Z,1014.67
2022-11-27T13:21:40.424Z,1014.51
2022-11-27T13:24:47.241Z,1014.50
2022-11-27T13:27:54.204Z,1014.41
2022-11-27T13:31:00.754Z,1014.38
2022-11-27T13:34:07.864Z,1014.32
2022-11-27T13:37:14.706Z,1014.26
2022-11-27T13:40:21.505Z,1014.29
2022-11-27T13:43:28.748Z,1014.30
2022-11-27T13:46:35.286Z,1014.16
2022-11-27T13:49:42.097Z,1014.09
2022-11-27T13:52:48.939Z,1014.16
2022-11-27T13:55:55.479Z,1014.17
2022-11-27T13:59:02.635Z,1014.04
2022-11-27T14:02:09.275Z,1014.00
2022-11-27T14:05:16.417Z,1014.02
2022-11-27T14:08:23.520Z,1014.01
2022-11-27T14:11:30.109Z,1013.93
2022-11-27T14:14:37.232Z,1013.97
2022-11-27T14:17:44.553Z,1013.92
2022-11-27T14:20:51.109Z,1013.96
2022-11-27T14:23:58.344Z,1013.85
2022-11-27T14:27:04.813Z,1013.79
2022-11-27T14:30:11.975Z,1013.78
2022-11-27T14:33:18.575Z,1013.80
2022-11-27T14:36:24.896Z,1013.88
2022-11-27T14:39:32.006Z,1013.85
2022-11-27T14:42:39.371Z,1013.79
2022-11-27T14:45:45.847Z,1013.76
2022-11-27T14:48:53.097Z,1013.72
2022-11-27T14:51:59.815Z,1013.73
2022-11-27T14:55:06.578Z,1013.66
2022-11-27T14:58:13.911Z,1013.66
2022-11-27T15:01:20.935Z,1013.57
2022-11-27T15:04:27.896Z,1013.57
2022-11-27T15:07:41.941Z,1013.50
2022-11-27T15:10:39.023Z,1013.43
2022-11-27T15:13:46.239Z,1013.38
2022-11-27T15:16:52.931Z,1013.42
2022-11-27T15:20:00.251Z,1013.27
2022-11-27T15:23:07.073Z,1013.31
2022-11-27T15:26:16.816Z,1013.28
2022-11-27T15:29:23.725Z,1013.25
2022-11-27T15:32:30.125Z,1013.23
2022-11-27T15:35:37.335Z,1013.21
2022-11-27T15:38:44.556Z,1013.14
2022-11-27T15:41:51.016Z,1013.09
2022-11-27T15:44:58.247Z,1013.10
2022-11-27T15:48:04.979Z,1012.94
2022-11-27T15:51:11.439Z,1012.92
2022-11-27T15:54:18.738Z,1012.88
2022-11-27T15:57:26.100Z,1012.90
2022-11-27T16:00:32.621Z,1012.86
2022-11-27T16:03:39.719Z,1012.83
2022-11-27T16:06:46.867Z,1012.86
2022-11-27T16:09:53.332Z,1012.85
2022-11-27T16:13:00.493Z,1012.83
2022-11-27T16:16:07.341Z,1012.82
2022-11-27T16:19:14.102Z,1012.80
2022-11-27T16:22:21.294Z,1012.84
2022-11-27T16:25:28.123Z,1012.76
2022-11-27T16:28:34.953Z,1012.74
2022-11-27T16:31:42.354Z,1012.76
2022-11-27T16:34:48.785Z,1012.69
2022-11-27T16:37:56.085Z,1012.70
2022-11-27T16:41:02.685Z,1012.64
2022-11-27T16:44:09.478Z,1012.63
2022-11-27T16:47:16.556Z,1012.55
2022-11-27T16:50:23.046Z,1012.58
2022-11-27T16:53:29.656Z,1012.58
2022-11-27T16:56:36.594Z,1012.56
2022-11-27T16:59:43.291Z,1012.48
2022-11-27T17:02:50.123Z,1012.44
2022-11-27T17:05:56.808Z,1012.35
2022-11-27T17:09:03.900Z,1012.39
2022-11-27T17:12:10.687Z,1012.32
2022-11-27T17:15:17.481Z,1012.27
2022-11-27T17:18:24.828Z,1012.26
2022-11-27T17:21:31.745Z,1012.21
2022-11-27T17:24:38.673Z,1012.09
2022-11-27T17:27:45.992Z,1012.12
2022-11-27T17:30:52.396Z,1012.09
2022-11-27T17:33:59.764Z,1012.03
2022-11-27T17:37:07.180Z,1012.01
2022-11-27T17:40:13.705Z,1011.96
2022-11-27T17:43:20.946Z,1011.94
2022-11-27T17:46:28.103Z,1011.94
2022-11-27T17:49:34.624Z,1011.98
2022-11-27T17:52:41.732Z,1011.94
2022-11-27T17:55:49.228Z,1011.94
2022-11-27T17:58:55.756Z,1011.89
2022-11-27T18:02:02.998Z,1011.84
2022-11-27T18:05:09.808Z,1011.77
2022-11-27T18:08:16.628Z,1011.78
2022-11-27T18:11:23.908Z,1011.77
2022-11-27T18:14:30.709Z,1011.67
2022-11-27T18:17:37.629Z,1011.67
2022-11-27T18:20:44.681Z,1011.69
2022-11-27T18:27:11.053Z,1011.55
2022-11-27T18:29:59.910Z,1011.56
2022-11-27T18:33:06.803Z,1011.54
2022-11-27T18:36:14.095Z,1011.41
2022-11-27T18:39:20.863Z,1011.34
2022-11-27T18:42:27.565Z,1011.30
2022-11-27T18:45:36.116Z,1011.19
2022-11-27T18:48:42.954Z,1011.17
2022-11-27T18:51:49.874Z,1011.03
2022-11-27T18:54:56.755Z,1011.08
2022-11-27T18:58:03.526Z,1011.03
2022-11-27T19:01:10.111Z,1011.01
2022-11-27T19:04:16.846Z,1011.00
2022-11-27T19:07:23.696Z,1010.99
2022-11-27T19:10:30.557Z,1010.96
2022-11-27T19:13:37.230Z,1010.97
2022-11-27T19:16:44.457Z,1010.88
2022-11-27T19:19:55.124Z,1010.87
2022-11-27T19:22:51.329Z,1010.83
2022-11-27T19:25:58.470Z,1010.75
2022-11-27T19:29:04.970Z,1010.72
2022-11-27T19:32:12.327Z,1010.71
2022-11-27T19:35:19.509Z,1010.69
2022-11-27T19:38:26.063Z,1010.64
2022-11-27T19:41:33.303Z,1010.68
2022-11-27T19:44:40.462Z,1010.65
2022-11-27T19:47:47.746Z,1010.57
2022-11-27T19:50:55.438Z,1010.54
2022-11-27T19:54:08.401Z,1010.47
2022-11-27T19:57:07.491Z,1010.44
2022-11-27T20:00:14.635Z,1010.34
2022-11-27T20:03:21.325Z,1010.29
2022-11-27T20:06:28.386Z,1010.27
2022-11-27T20:09:36.316Z,1010.19
2022-11-27T20:12:43.018Z,1010.18
2022-11-27T20:15:50.418Z,1010.11
2022-11-27T20:18:57.958Z,1010.07
2022-11-27T20:22:04.713Z,1010.06
2022-11-27T20:25:19.365Z,1009.97
2022-11-27T20:28:15.248Z,1009.97
2022-11-27T20:31:22.178Z,1009.98
2022-11-27T20:34:29.543Z,1010.09
2022-11-27T20:37:36.411Z,1010.09
2022-11-27T20:40:43.390Z,1010.05
2022-11-27T20:43:50.351Z,1010.09
2022-11-27T20:46:57.612Z,1010.06
2022-11-27T20:50:04.363Z,1010.01
2022-11-27T20:53:10.931Z,1009.99
2022-11-27T20:56:17.905Z,1009.88
2022-11-27T20:59:24.893Z,1009.80
2022-11-27T21:02:31.797Z,1009.85
2022-11-27T21:05:38.621Z,1009.77
2022-11-27T21:08:45.136Z,1009.73
2022-11-27T21:11:52.065Z,1009.72
2022-11-27T21:14:59.278Z,1009.74
2022-11-27T21:18:05.905Z,1009.67
2022-11-27T21:21:13.004Z,1009.71
2022-11-27T21:24:20.253Z,1009.70
2022-11-27T21:27:26.799Z,1009.69
2022-11-27T21:30:34.185Z,1009.74
2022-11-27T21:33:40.882Z,1009.71
2022-11-27T21:36:47.986Z,1009.62
2022-11-27T21:39:55.017Z,1009.66
2022-11-27T21:43:01.877Z,1009.49
2022-11-27T21:46:08.926Z,1009.46
2022-11-27T21:49:16.153Z,1009.37
2022-11-27T21:52:22.950Z,1009.41
2022-11-27T21:55:29.870Z,1009.27
2022-11-27T21:58:36.732Z,1009.42
2022-11-27T22:01:43.754Z,1009.31
2022-11-27T22:04:50.553Z,1009.40
2022-11-27T22:07:57.508Z,1009.36
2022-11-27T22:11:04.474Z,1009.26
2022-11-27T22:14:11.885Z,1009.13
2022-11-27T22:17:18.811Z,1009.10
2022-11-27T22:20:25.997Z,1009.14
2022-11-27T22:23:32.445Z,1009.01
2022-11-27T22:26:39.485Z,1009.13
2022-11-27T22:29:46.537Z,1009.23
2022-11-27T22:32:53.067Z,1008.99
2022-11-27T22:36:00.192Z,1009.03
2022-11-27T22:39:07.140Z,1009.04
2022-11-27T22:42:14.159Z,1009.00
2022-11-27T22:45:21.399Z,1009.10
2022-11-27T22:48:27.950Z,1009.03
2022-11-27T22:51:34.930Z,1009.01
2022-11-27T22:54:42.521Z,1008.86
2022-11-27T22:57:49.239Z,1009.02
2022-11-27T23:00:56.172Z,1008.99
2022-11-27T23:04:03.616Z,1008.94
2022-11-27T23:07:10.071Z,1008.82
2022-11-27T23:10:16.905Z,1008.77
2022-11-27T23:13:23.735Z,1008.89
2022-11-27T23:16:30.614Z,1008.83
2022-11-27T23:19:37.762Z,1008.79
2022-11-27T23:22:44.665Z,1008.62
2022-11-27T23:25:51.557Z,1008.72
2022-11-27T23:28:58.986Z,1008.69
2022-11-27T23:32:05.814Z,1008.67
2022-11-27T23:35:12.708Z,1008.71
2022-11-27T23:38:19.679Z,1008.61
2022-11-27T23:41:26.918Z,1008.45
2022-11-27T23:44:33.929Z,1008.51
2022-11-27T23:47:41.259Z,1008.55
2022-11-27T23:50:48.310Z,1008.53
2022-11-27T23:53:55.300Z,1008.49
2022-11-27T23:57:02.219Z,1008.32
